createdAt,value
2019-01-12T00:02:00.513Z,41.13
2019-01-12T00:04:29.979Z,36.10
2019-01-12T00:06:59.601Z,41.55
2019-01-12T00:09:29.407Z,40.67
2019-01-12T00:11:59.173Z,45.43
2019-01-12T00:14:28.710Z,37.17
2019-01-12T00:16:58.368Z,37.55
2019-01-12T00:19:28.325Z,41.02
2019-01-12T00:21:58.168Z,37.58
2019-01-12T00:24:31.451Z,39.80
2019-01-12T00:26:57.783Z,47.10
2019-01-12T00:29:27.290Z,40.45
2019-01-12T00:31:56.938Z,40.98
2019-01-12T00:34:26.510Z,38.35
2019-01-12T00:36:56.290Z,45.10
2019-01-12T00:39:26.188Z,41.28
2019-01-12T00:41:55.657Z,41.55
2019-01-12T00:44:25.387Z,42.90
2019-01-12T00:46:54.924Z,36.63
2019-01-12T00:49:24.576Z,41.33
2019-01-12T00:51:54.069Z,38.02
2019-01-12T00:54:23.823Z,37.10
2019-01-12T00:56:53.395Z,41.88
2019-01-12T00:59:23.120Z,43.65
2019-01-12T01:01:52.704Z,48.10
2019-01-12T01:04:22.272Z,46.58
2019-01-12T01:06:51.784Z,45.10
2019-01-12T01:09:21.435Z,55.48
2019-01-12T01:11:51.160Z,44.18
2019-01-12T01:14:23.686Z,39.42
2019-01-12T01:16:53.382Z,40.98
2019-01-12T01:19:22.996Z,57.35
2019-01-12T01:21:52.618Z,48.52
2019-01-12T01:24:22.112Z,44.30
2019-01-12T01:26:51.831Z,55.30
2019-01-12T01:29:21.269Z,46.83
2019-01-12T01:31:50.966Z,40.35
2019-01-12T01:34:20.505Z,38.73
2019-01-12T01:36:50.120Z,39.13
2019-01-12T01:39:19.903Z,45.23
2019-01-12T01:41:49.860Z,42.85
2019-01-12T01:44:19.938Z,39.35
2019-01-12T01:46:49.691Z,43.60
2019-01-12T01:49:19.157Z,41.37
2019-01-12T01:51:48.900Z,44.48
2019-01-12T01:54:18.637Z,44.77
2019-01-12T01:56:48.093Z,42.33
2019-01-12T01:59:17.561Z,42.70
2019-01-12T02:01:47.293Z,41.55
2019-01-12T02:04:16.905Z,44.67
2019-01-12T02:06:46.320Z,44.88
2019-01-12T02:09:15.979Z,39.20
2019-01-12T02:11:45.577Z,41.83
2019-01-12T02:14:15.244Z,39.00
2019-01-12T02:16:45.007Z,36.53
2019-01-12T02:19:14.577Z,38.70
2019-01-12T02:21:44.259Z,37.60
2019-01-12T02:24:13.837Z,44.40
2019-01-12T02:26:43.433Z,41.90
2019-01-12T02:29:13.040Z,41.58
2019-01-12T02:31:42.747Z,42.62
2019-01-12T02:34:12.519Z,45.28
2019-01-12T02:36:42.236Z,42.55
2019-01-12T02:39:11.904Z,38.85
2019-01-12T02:41:41.538Z,39.33
2019-01-12T02:44:11.050Z,37.28
2019-01-12T02:46:40.764Z,42.05
2019-01-12T02:49:10.336Z,39.35
2019-01-12T02:51:39.847Z,38.28
2019-01-12T02:54:09.513Z,73.52
2019-01-12T02:56:39.185Z,34.88
2019-01-12T02:59:09.520Z,37.35
2019-01-12T03:01:39.084Z,33.75
2019-01-12T03:04:08.632Z,31.65
2019-01-12T03:06:38.451Z,32.73
2019-01-12T03:09:09.238Z,27.60
2019-01-12T03:11:38.694Z,35.33
2019-01-12T03:14:08.284Z,31.87
2019-01-12T03:16:37.926Z,33.63
2019-01-12T03:19:07.306Z,33.45
2019-01-12T03:21:36.812Z,31.50
2019-01-12T03:24:06.359Z,32.58
2019-01-12T03:26:35.790Z,31.40
2019-01-12T03:29:05.093Z,31.75
2019-01-12T03:31:34.912Z,28.92
2019-01-12T03:34:04.448Z,28.17
2019-01-12T03:36:34.160Z,31.95
2019-01-12T03:39:03.954Z,30.60
2019-01-12T03:41:33.770Z,29.85
2019-01-12T03:44:03.200Z,30.90
2019-01-12T03:46:33.861Z,32.30
2019-01-12T03:49:03.223Z,31.57
2019-01-12T03:51:32.723Z,30.20
2019-01-12T03:54:02.445Z,27.87
2019-01-12T03:56:32.165Z,30.88
2019-01-12T03:59:01.876Z,30.55
2019-01-12T04:01:31.513Z,29.32
2019-01-12T04:04:01.190Z,34.65
2019-01-12T04:06:30.667Z,29.52
2019-01-12T04:09:00.334Z,28.02
2019-01-12T04:11:29.895Z,31.17
2019-01-12T04:13:59.505Z,28.15
2019-01-12T04:16:29.252Z,25.00
2019-01-12T04:18:58.706Z,29.27
2019-01-12T04:21:28.196Z,27.67
2019-01-12T04:23:57.759Z,25.57
2019-01-12T04:26:27.275Z,26.77
2019-01-12T04:28:56.942Z,25.30
2019-01-12T04:31:26.723Z,23.50
2019-01-12T04:33:56.259Z,26.42
2019-01-12T04:36:25.966Z,23.42
2019-01-12T04:38:55.409Z,27.45
2019-01-12T04:41:24.951Z,24.52
2019-01-12T04:43:54.487Z,17.42
2019-01-12T04:46:24.223Z,23.85
2019-01-12T04:48:53.815Z,91.97
2019-01-12T04:51:23.291Z,53.68
2019-01-12T04:53:52.775Z,24.75
2019-01-12T04:56:22.144Z,27.27
2019-01-12T04:58:51.819Z,23.87
2019-01-12T05:01:21.576Z,26.33
2019-01-12T05:03:51.069Z,25.48
2019-01-12T05:06:20.531Z,25.25
2019-01-12T05:08:50.107Z,23.47
2019-01-12T05:11:19.669Z,28.65
2019-01-12T05:13:49.392Z,27.02
2019-01-12T05:16:19.022Z,25.72
2019-01-12T05:18:48.583Z,31.40
2019-01-12T05:21:18.223Z,23.12
2019-01-12T05:23:48.003Z,25.85
2019-01-12T05:26:17.520Z,30.65
2019-01-12T05:28:47.181Z,34.58
2019-01-12T05:31:16.770Z,23.22
2019-01-12T05:33:46.649Z,29.30
2019-01-12T05:36:15.988Z,29.92
2019-01-12T05:38:45.700Z,28.55
2019-01-12T05:41:15.279Z,29.32
2019-01-12T05:43:44.731Z,29.65
2019-01-12T05:46:14.429Z,30.32
2019-01-12T05:48:43.840Z,24.90
2019-01-12T05:51:13.389Z,31.55
2019-01-12T05:53:43.037Z,25.23
2019-01-12T05:56:12.770Z,28.87
2019-01-12T05:58:42.423Z,30.95
2019-01-12T06:01:12.163Z,29.77
2019-01-12T06:03:41.744Z,27.20
2019-01-12T06:06:11.356Z,22.32
2019-01-12T06:08:41.196Z,22.40
2019-01-12T06:11:10.892Z,24.52
2019-01-12T06:13:40.477Z,28.70
2019-01-12T06:16:10.902Z,26.80
2019-01-12T06:18:41.370Z,29.52
2019-01-12T06:21:10.968Z,29.57
2019-01-12T06:23:42.025Z,37.73
2019-01-12T06:26:11.710Z,35.35
2019-01-12T06:28:41.523Z,27.70
2019-01-12T06:31:11.228Z,41.65
2019-01-12T06:33:40.878Z,99.35
2019-01-12T06:36:10.630Z,39.30
2019-01-12T06:38:40.217Z,32.28
2019-01-12T06:41:09.867Z,57.78
2019-01-12T06:43:40.635Z,53.60
2019-01-12T06:46:10.711Z,28.52
2019-01-12T06:48:41.837Z,24.77
2019-01-12T06:51:13.105Z,20.75
2019-01-12T06:53:43.177Z,25.97
2019-01-12T06:56:12.857Z,24.37
2019-01-12T06:58:42.463Z,27.98
2019-01-12T07:01:12.721Z,28.40
2019-01-12T07:03:42.499Z,27.10
2019-01-12T07:06:12.231Z,26.65
2019-01-12T07:08:41.799Z,41.02
2019-01-12T07:11:11.913Z,128.70
2019-01-12T07:13:41.487Z,47.05
2019-01-12T07:16:12.373Z,28.00
2019-01-12T07:18:42.738Z,28.02
2019-01-12T07:21:12.383Z,25.00
2019-01-12T07:23:42.210Z,23.50
2019-01-12T07:26:17.523Z,21.80
2019-01-12T07:28:43.239Z,23.57
2019-01-12T07:31:12.809Z,28.73
2019-01-12T07:33:42.719Z,27.55
2019-01-12T07:36:12.416Z,24.98
2019-01-12T07:38:43.207Z,26.55
2019-01-12T07:41:12.791Z,29.05
2019-01-12T07:43:42.279Z,28.05
2019-01-12T07:46:12.100Z,23.12
2019-01-12T07:48:41.707Z,27.40
2019-01-12T07:51:11.651Z,28.05
2019-01-12T07:53:41.163Z,26.85
2019-01-12T07:56:10.742Z,25.32
2019-01-12T07:58:40.197Z,28.57
2019-01-12T08:01:09.829Z,31.73
2019-01-12T08:03:39.590Z,27.80
2019-01-12T08:06:09.439Z,31.65
2019-01-12T08:08:38.912Z,111.05
2019-01-12T08:11:08.707Z,38.20
2019-01-12T08:13:38.384Z,27.77
2019-01-12T08:16:07.791Z,35.23
2019-01-12T08:18:37.384Z,23.75
2019-01-12T08:21:07.002Z,22.52
2019-01-12T08:23:36.613Z,24.47
2019-01-12T08:26:06.082Z,25.12
2019-01-12T08:28:35.805Z,27.42
2019-01-12T08:31:05.161Z,23.45
2019-01-12T08:33:34.743Z,20.45
2019-01-12T08:36:06.480Z,19.67
2019-01-12T08:38:36.126Z,242.77
2019-01-12T08:41:05.579Z,24.50
2019-01-12T08:43:35.093Z,48.68
2019-01-12T08:46:04.733Z,38.60
2019-01-12T08:48:34.208Z,24.23
2019-01-12T08:51:03.568Z,23.05
2019-01-12T08:53:34.141Z,26.70
2019-01-12T08:56:03.590Z,28.45
2019-01-12T08:58:33.245Z,24.00
2019-01-12T09:01:02.622Z,23.98
2019-01-12T09:03:32.364Z,95.38
2019-01-12T09:06:01.865Z,46.42
2019-01-12T09:08:31.376Z,19.70
2019-01-12T09:11:00.881Z,26.57
2019-01-12T09:13:30.283Z,23.62
2019-01-12T09:16:00.247Z,24.70
2019-01-12T09:18:29.886Z,26.00
2019-01-12T09:20:59.403Z,104.78
2019-01-12T09:23:29.202Z,18.92
2019-01-12T09:25:58.723Z,19.37
2019-01-12T09:28:28.482Z,15.18
2019-01-12T09:30:58.106Z,17.17
2019-01-12T09:33:27.450Z,18.12
2019-01-12T09:35:57.053Z,14.78
2019-01-12T09:38:26.713Z,11.18
2019-01-12T09:40:56.270Z,188.03
2019-01-12T09:43:25.957Z,35.35
2019-01-12T09:45:55.757Z,19.10
2019-01-12T09:48:25.517Z,15.85
2019-01-12T09:50:55.110Z,12.33
2019-01-12T09:53:24.668Z,13.95
2019-01-12T09:55:54.241Z,13.28
2019-01-12T09:58:23.991Z,17.02
2019-01-12T10:00:53.824Z,16.73
2019-01-12T10:03:23.471Z,17.57
2019-01-12T10:05:53.105Z,13.88
2019-01-12T10:08:22.466Z,161.22
2019-01-12T10:10:51.990Z,17.15
2019-01-12T10:13:21.769Z,15.90
2019-01-12T10:15:51.405Z,12.43
2019-01-12T10:18:21.121Z,14.63
2019-01-12T10:20:50.605Z,15.53
2019-01-12T10:23:20.132Z,16.25
2019-01-12T10:25:49.799Z,13.85
2019-01-12T10:28:19.363Z,15.05
2019-01-12T10:30:49.210Z,16.07
2019-01-12T10:33:18.764Z,14.13
2019-01-12T10:35:48.261Z,16.32
2019-01-12T10:38:18.032Z,23.15
2019-01-12T10:40:47.728Z,14.38
2019-01-12T10:43:17.489Z,10.50
2019-01-12T10:45:47.257Z,17.23
2019-01-12T10:48:16.926Z,15.68
2019-01-12T10:50:46.657Z,45.30
2019-01-12T10:53:16.299Z,24.20
2019-01-12T10:55:45.795Z,15.50
2019-01-12T10:58:15.561Z,17.65
2019-01-12T11:00:45.733Z,17.92
2019-01-12T11:03:15.246Z,35.70
2019-01-12T11:05:44.834Z,20.92
2019-01-12T11:08:14.682Z,16.73
2019-01-12T11:10:44.395Z,16.45
2019-01-12T11:13:14.043Z,15.30
2019-01-12T11:15:43.979Z,15.25
2019-01-12T11:18:14.175Z,83.25
2019-01-12T11:20:43.909Z,78.83
2019-01-12T11:23:13.734Z,25.12
2019-01-12T11:25:43.329Z,16.67
2019-01-12T11:28:13.220Z,26.05
2019-01-12T11:30:42.865Z,22.77
2019-01-12T11:33:12.531Z,15.28
2019-01-12T11:35:42.138Z,17.00
2019-01-12T11:38:11.736Z,15.13
2019-01-12T11:40:41.358Z,16.62
2019-01-12T11:43:10.905Z,22.00
2019-01-12T11:45:40.393Z,40.15
2019-01-12T11:48:09.989Z,23.85
2019-01-12T11:50:39.775Z,21.82
2019-01-12T11:53:09.551Z,18.23
2019-01-12T11:55:40.733Z,21.73
2019-01-12T11:58:10.469Z,18.77
2019-01-12T12:00:40.154Z,20.48
2019-01-12T12:03:09.500Z,14.25
2019-01-12T12:05:38.975Z,27.80
2019-01-12T12:08:08.427Z,13.60
2019-01-12T12:10:37.804Z,13.45
2019-01-12T12:13:07.384Z,14.68
2019-01-12T12:15:37.147Z,13.32
2019-01-12T12:18:06.711Z,13.55
2019-01-12T12:20:36.394Z,13.50
2019-01-12T12:23:08.202Z,42.83
2019-01-12T12:25:37.983Z,287.52
2019-01-12T12:28:09.073Z,12.05
2019-01-12T12:30:39.801Z,14.10
2019-01-12T12:33:09.824Z,13.10
2019-01-12T12:35:39.565Z,14.95
2019-01-12T12:38:11.054Z,12.55
2019-01-12T12:40:40.970Z,15.72
2019-01-12T12:43:10.654Z,27.62
2019-01-12T12:45:40.716Z,46.70
2019-01-12T12:48:10.947Z,11.88
2019-01-12T12:50:41.746Z,11.20
2019-01-12T12:53:11.611Z,15.58
2019-01-12T12:55:41.585Z,14.87
2019-01-12T12:58:11.348Z,12.98
2019-01-12T13:00:41.203Z,14.07
2019-01-12T13:03:10.934Z,47.25
2019-01-12T13:05:40.595Z,79.65
2019-01-12T13:08:11.927Z,29.30
2019-01-12T13:10:41.566Z,15.32
2019-01-12T13:13:11.462Z,9.68
2019-01-12T13:15:42.471Z,10.90
2019-01-12T13:18:11.099Z,11.50
2019-01-12T13:20:41.350Z,14.40
2019-01-12T13:23:11.285Z,12.60
2019-01-12T13:25:41.221Z,12.35
2019-01-12T13:28:10.954Z,9.83
2019-01-12T13:30:40.559Z,18.75
2019-01-12T13:33:10.983Z,10.93
2019-01-12T13:35:40.947Z,9.90
2019-01-12T13:38:10.671Z,12.13
2019-01-12T13:40:40.442Z,10.82
2019-01-12T13:43:10.445Z,13.03
2019-01-12T13:45:40.216Z,12.15
2019-01-12T13:48:10.689Z,12.33
2019-01-12T13:50:40.185Z,14.75
2019-01-12T13:53:09.737Z,13.03
2019-01-12T13:55:39.603Z,14.40
2019-01-12T13:58:10.053Z,12.45
2019-01-12T14:00:38.803Z,15.23
2019-01-12T14:03:08.992Z,14.73
2019-01-12T14:05:38.713Z,13.53
2019-01-12T14:08:08.573Z,12.45
2019-01-12T14:10:38.417Z,15.32
2019-01-12T14:13:08.243Z,15.83
2019-01-12T14:15:37.969Z,15.13
2019-01-12T14:18:07.560Z,16.10
2019-01-12T14:20:38.663Z,16.50
2019-01-12T14:23:08.907Z,18.05
2019-01-12T14:25:38.698Z,17.27
2019-01-12T14:28:08.291Z,15.13
2019-01-12T14:30:37.810Z,16.82
2019-01-12T14:33:07.263Z,93.22
2019-01-12T14:35:37.246Z,17.67
2019-01-12T14:38:06.696Z,15.70
2019-01-12T14:40:36.471Z,16.65
2019-01-12T14:43:05.909Z,19.27
2019-01-12T14:45:35.291Z,17.25
2019-01-12T14:48:05.320Z,17.27
2019-01-12T14:50:34.826Z,16.32
2019-01-12T14:53:04.397Z,16.25
2019-01-12T14:55:34.091Z,15.93
2019-01-12T14:58:03.865Z,19.67
2019-01-12T15:00:33.457Z,16.37
2019-01-12T15:03:03.023Z,16.02
2019-01-12T15:05:35.991Z,16.35
2019-01-12T15:08:03.777Z,18.48
2019-01-12T15:10:33.440Z,17.65
2019-01-12T15:13:03.566Z,21.45
2019-01-12T15:15:33.068Z,31.23
2019-01-12T15:18:02.525Z,24.63
2019-01-12T15:20:33.796Z,31.65
2019-01-12T15:23:03.430Z,25.35
2019-01-12T15:25:33.065Z,26.48
2019-01-12T15:28:08.727Z,28.45
2019-01-12T15:30:33.082Z,29.57
2019-01-12T15:33:05.881Z,26.25
2019-01-12T15:35:39.119Z,24.80
2019-01-12T15:38:09.233Z,25.68
2019-01-12T15:40:41.080Z,27.17
2019-01-12T15:43:10.742Z,23.57
2019-01-12T15:45:40.851Z,23.65
2019-01-12T15:48:11.725Z,20.55
2019-01-12T15:50:41.492Z,18.98
2019-01-12T15:53:11.204Z,15.30
2019-01-12T15:55:41.019Z,15.45
2019-01-12T15:58:16.145Z,17.20
2019-01-12T16:00:41.820Z,19.05
2019-01-12T16:03:14.670Z,17.73
2019-01-12T16:05:44.410Z,14.70
2019-01-12T16:08:14.199Z,16.05
2019-01-12T16:28:05.862Z,18.07
2019-01-12T16:30:35.426Z,15.78
2019-01-12T16:50:27.481Z,26.10
2019-01-12T16:52:57.102Z,32.13
2019-01-12T16:55:26.933Z,43.25
2019-01-12T16:57:56.768Z,33.92
2019-01-12T17:00:29.073Z,59.58
2019-01-12T17:02:59.256Z,30.05
2019-01-12T17:05:28.953Z,29.20
2019-01-12T17:07:58.631Z,34.50
2019-01-12T17:10:28.367Z,36.63
2019-01-12T17:12:57.963Z,41.75
2019-01-12T17:15:34.436Z,114.55
2019-01-12T17:17:57.170Z,1999.90
2019-01-12T17:20:28.302Z,1999.90
2019-01-12T17:23:00.070Z,136.37
2019-01-12T17:25:30.099Z,589.97
2019-01-12T17:27:59.719Z,165.50
2019-01-12T17:30:29.283Z,1999.90
2019-01-12T17:32:59.030Z,1416.17
2019-01-12T17:35:29.532Z,1195.33
2019-01-12T17:37:58.554Z,1402.20
2019-01-12T17:40:28.351Z,785.35
2019-01-12T17:42:58.535Z,1109.40
2019-01-12T17:45:28.339Z,1655.75
2019-01-12T17:47:57.793Z,1999.90
2019-01-12T17:50:28.274Z,1999.90
2019-01-12T17:52:59.254Z,1746.35
2019-01-12T17:55:29.363Z,59.25
2019-01-12T17:57:58.939Z,44.08
2019-01-12T18:17:50.479Z,18.20
2019-01-12T18:20:20.233Z,24.57
2019-01-12T18:22:49.851Z,35.23
2019-01-12T18:25:19.503Z,30.37
2019-01-12T18:27:49.357Z,24.85
2019-01-12T18:30:20.375Z,14.47
2019-01-12T18:32:50.091Z,18.17
2019-01-12T18:35:19.909Z,22.07
2019-01-12T18:37:49.736Z,18.10
2019-01-12T18:40:19.437Z,18.42
2019-01-12T18:42:48.918Z,21.55
2019-01-12T18:45:18.936Z,24.52
2019-01-12T18:47:49.672Z,24.02
2019-01-12T18:50:21.341Z,23.95
2019-01-12T19:30:28.110Z,19.55
2019-01-12T19:32:57.739Z,20.92
2019-01-12T19:35:27.417Z,17.80
2019-01-12T19:37:57.339Z,17.27
2019-01-12T19:40:27.436Z,19.80
2019-01-12T19:42:57.004Z,17.23
2019-01-12T19:45:26.365Z,21.27
2019-01-12T19:47:56.129Z,44.03
2019-01-12T19:50:26.668Z,36.33
2019-01-12T20:10:18.716Z,29.63
2019-01-12T20:12:48.395Z,35.68
2019-01-12T20:15:20.471Z,33.20
2019-01-12T20:17:50.584Z,37.93
2019-01-12T20:20:20.276Z,43.90
2019-01-12T20:22:50.310Z,51.20
2019-01-12T20:25:22.438Z,45.70
2019-01-12T20:27:52.087Z,80.70
2019-01-12T20:30:31.457Z,115.00
2019-01-12T20:34:16.784Z,69.55
2019-01-12T20:36:58.739Z,48.85
2019-01-12T20:41:45.971Z,46.83
2019-01-12T21:06:18.537Z,18.60
2019-01-12T21:26:09.929Z,14.15
2019-01-12T21:28:39.641Z,16.05
2019-01-12T21:31:09.323Z,16.57
2019-01-12T21:33:38.946Z,13.93
2019-01-12T21:36:08.760Z,12.23
2019-01-12T21:38:38.442Z,15.70
2019-01-12T21:41:08.072Z,17.55
2019-01-12T21:43:37.803Z,22.93
2019-01-12T21:46:07.252Z,21.35
2019-01-12T21:48:36.897Z,20.88
2019-01-12T21:51:06.471Z,19.07
2019-01-12T21:53:36.106Z,23.40
2019-01-12T21:56:05.667Z,19.35
2019-01-12T21:58:35.381Z,46.70
2019-01-12T22:18:26.654Z,22.45
2019-01-12T22:20:56.230Z,17.60
2019-01-12T22:23:25.791Z,18.17
2019-01-12T22:43:17.383Z,150.18
2019-01-12T22:45:47.543Z,189.77
2019-01-12T23:05:39.114Z,82.20
2019-01-12T23:08:08.735Z,83.67
2019-01-12T23:10:38.364Z,77.50
2019-01-12T23:13:08.332Z,76.00
2019-01-12T23:15:37.695Z,81.40
2019-01-12T23:35:34.545Z,80.80
2019-01-12T23:38:05.017Z,82.00
2019-01-12T23:40:38.577Z,79.10
2019-01-12T23:43:11.204Z,79.12
2019-01-12T23:45:41.697Z,82.75
2019-01-12T23:48:11.626Z,72.97
2019-01-12T23:50:41.142Z,78.75
2019-01-12T23:53:10.835Z,77.55
2019-01-12T23:55:40.940Z,83.15
2019-01-12T23:58:10.711Z,78.22
